createdAt,value
2019-03-22T00:01:12.823Z,4.97
2019-03-22T00:03:42.631Z,4.90
2019-03-22T00:06:12.480Z,6.70
2019-03-22T00:08:42.264Z,6.17
2019-03-22T00:11:12.079Z,5.03
2019-03-22T00:13:41.935Z,3.87
2019-03-22T00:16:11.665Z,4.20
2019-03-22T00:18:41.531Z,4.93
2019-03-22T00:21:11.252Z,4.30
2019-03-22T00:23:40.943Z,4.67
2019-03-22T00:26:10.679Z,2.87
2019-03-22T00:28:40.441Z,3.80
2019-03-22T00:31:10.227Z,2.70
2019-03-22T00:33:39.992Z,4.53
2019-03-22T00:36:09.719Z,2.37
2019-03-22T00:38:39.412Z,3.47
2019-03-22T00:41:09.148Z,4.83
2019-03-22T00:43:38.925Z,4.73
2019-03-22T00:46:08.716Z,4.33
2019-03-22T00:48:38.570Z,4.10
2019-03-22T00:51:08.482Z,4.20
2019-03-22T00:53:38.354Z,3.00
2019-03-22T00:56:08.156Z,4.63
2019-03-22T00:58:37.894Z,3.70
2019-03-22T01:01:07.686Z,4.03
2019-03-22T01:03:37.547Z,3.13
2019-03-22T01:06:07.262Z,4.17
2019-03-22T01:08:37.058Z,5.20
2019-03-22T01:11:06.976Z,3.43
2019-03-22T01:13:36.771Z,3.80
2019-03-22T01:16:06.563Z,5.13
2019-03-22T01:18:36.359Z,4.33
2019-03-22T01:21:06.092Z,4.90
2019-03-22T01:23:35.891Z,6.87
2019-03-22T01:26:05.864Z,6.67
2019-03-22T01:28:35.650Z,6.97
2019-03-22T01:31:05.454Z,6.57
2019-03-22T01:33:35.226Z,4.40
2019-03-22T01:36:05.066Z,5.10
2019-03-22T01:38:34.828Z,5.90
2019-03-22T01:41:04.683Z,6.40
2019-03-22T01:43:34.445Z,5.37
2019-03-22T01:46:04.256Z,5.90
2019-03-22T01:48:34.157Z,7.73
2019-03-22T01:51:04.015Z,5.50
2019-03-22T01:53:33.808Z,7.00
2019-03-22T01:56:03.618Z,6.20
2019-03-22T01:58:33.387Z,6.37
2019-03-22T02:01:03.124Z,6.50
2019-03-22T02:03:32.901Z,4.93
2019-03-22T02:06:02.627Z,6.47
2019-03-22T02:08:32.402Z,5.20
2019-03-22T02:11:02.200Z,8.77
2019-03-22T02:13:31.902Z,7.40
2019-03-22T02:16:01.759Z,6.17
2019-03-22T02:18:31.451Z,6.10
2019-03-22T02:21:01.187Z,6.57
2019-03-22T02:23:31.033Z,7.37
2019-03-22T02:26:00.898Z,10.80
2019-03-22T02:28:30.676Z,6.77
2019-03-22T02:31:00.551Z,6.57
2019-03-22T02:33:30.318Z,8.70
2019-03-22T02:36:00.198Z,10.53
2019-03-22T02:38:30.074Z,9.27
2019-03-22T02:40:59.958Z,11.60
2019-03-22T02:43:29.736Z,8.77
2019-03-22T02:45:59.611Z,11.47
2019-03-22T02:48:29.391Z,9.87
2019-03-22T02:50:59.205Z,9.90
2019-03-22T02:53:29.084Z,8.40
2019-03-22T02:55:59.033Z,9.57
2019-03-22T02:58:28.834Z,11.57
2019-03-22T03:00:58.699Z,9.37
2019-03-22T03:03:28.484Z,8.60
2019-03-22T03:05:58.354Z,8.70
2019-03-22T03:08:28.061Z,10.47
2019-03-22T03:10:57.785Z,9.77
2019-03-22T03:13:27.557Z,8.57
2019-03-22T03:15:57.469Z,10.97
2019-03-22T03:18:27.238Z,10.67
2019-03-22T03:20:57.102Z,10.00
2019-03-22T03:23:26.942Z,8.83
2019-03-22T03:25:56.809Z,9.63
2019-03-22T03:28:36.653Z,7.83
2019-03-22T03:30:58.194Z,9.60
2019-03-22T03:33:28.005Z,8.67
2019-03-22T03:35:57.876Z,7.47
2019-03-22T03:38:27.746Z,9.20
2019-03-22T03:40:57.599Z,11.60
2019-03-22T03:43:27.392Z,14.97
2019-03-22T03:45:57.247Z,12.17
2019-03-22T03:48:26.931Z,10.83
2019-03-22T03:50:56.709Z,12.03
2019-03-22T03:53:26.570Z,13.47
2019-03-22T03:55:56.408Z,9.13
2019-03-22T03:58:26.196Z,10.83
2019-03-22T04:00:55.988Z,11.30
2019-03-22T04:03:25.794Z,14.10
2019-03-22T04:05:55.685Z,10.33
2019-03-22T04:08:25.504Z,12.93
2019-03-22T04:10:55.221Z,9.70
2019-03-22T04:13:25.055Z,11.10
2019-03-22T04:15:54.840Z,12.93
2019-03-22T04:18:24.542Z,12.17
2019-03-22T04:20:54.492Z,10.53
2019-03-22T04:23:24.244Z,12.27
2019-03-22T04:25:54.118Z,12.20
2019-03-22T04:28:23.905Z,12.27
2019-03-22T04:30:53.615Z,11.03
2019-03-22T04:33:23.312Z,10.33
2019-03-22T04:35:53.154Z,13.47
2019-03-22T04:38:22.960Z,11.30
2019-03-22T04:40:52.756Z,11.63
2019-03-22T04:43:22.511Z,11.67
2019-03-22T04:45:53.369Z,12.93
2019-03-22T04:48:28.262Z,9.73
2019-03-22T04:51:00.616Z,13.50
2019-03-22T04:53:35.768Z,12.87
2019-03-22T04:56:09.211Z,12.80
2019-03-22T04:58:40.839Z,10.97
2019-03-22T05:01:13.018Z,14.03
2019-03-22T05:03:43.684Z,12.30
2019-03-22T05:06:14.393Z,12.17
2019-03-22T05:08:44.765Z,11.63
2019-03-22T05:11:15.250Z,11.17
2019-03-22T05:13:47.659Z,11.60
2019-03-22T05:16:19.146Z,10.07
2019-03-22T05:18:51.247Z,12.10
2019-03-22T05:21:24.051Z,9.93
2019-03-22T05:23:56.778Z,10.00
2019-03-22T05:26:29.296Z,10.03
2019-03-22T05:28:59.988Z,10.30
2019-03-22T05:31:54.692Z,9.00
2019-03-22T05:34:24.414Z,11.17
2019-03-22T05:36:54.187Z,9.37
2019-03-22T05:39:23.927Z,7.43
2019-03-22T05:41:53.701Z,12.70
2019-03-22T05:44:23.512Z,8.93
2019-03-22T05:46:53.354Z,8.73
2019-03-22T05:49:23.120Z,10.17
2019-03-22T05:51:52.918Z,10.70
2019-03-22T05:54:22.735Z,11.20
2019-03-22T05:56:52.529Z,10.27
2019-03-22T05:59:22.330Z,11.07
2019-03-22T06:01:52.218Z,12.17
2019-03-22T06:04:22.170Z,10.80
2019-03-22T06:06:52.028Z,9.53
2019-03-22T06:09:21.704Z,9.40
2019-03-22T06:11:51.426Z,11.37
2019-03-22T06:14:21.210Z,13.53
2019-03-22T06:16:50.931Z,11.63
2019-03-22T06:19:20.750Z,10.03
2019-03-22T06:21:50.607Z,9.70
2019-03-22T06:24:22.295Z,10.13
2019-03-22T06:26:51.949Z,11.53
2019-03-22T06:29:21.766Z,12.10
2019-03-22T06:31:51.558Z,12.17
2019-03-22T06:34:21.378Z,12.20
2019-03-22T06:36:51.165Z,10.70
2019-03-22T06:39:20.955Z,9.30
2019-03-22T06:41:50.747Z,22.90
2019-03-22T06:44:20.703Z,12.77
2019-03-22T06:46:50.465Z,17.20
2019-03-22T06:49:20.277Z,10.33
2019-03-22T06:51:50.166Z,10.40
2019-03-22T06:54:30.914Z,8.37
2019-03-22T06:56:51.482Z,11.67
2019-03-22T06:59:21.270Z,10.23
2019-03-22T07:01:51.076Z,9.80
2019-03-22T07:04:20.784Z,10.30
2019-03-22T07:06:50.572Z,8.70
2019-03-22T07:09:20.935Z,11.13
2019-03-22T07:11:50.749Z,10.50
2019-03-22T07:14:20.582Z,8.43
2019-03-22T07:16:50.395Z,9.47
2019-03-22T07:19:20.131Z,10.27
2019-03-22T07:21:49.941Z,12.60
2019-03-22T07:24:19.713Z,8.97
2019-03-22T07:26:49.579Z,8.17
2019-03-22T07:29:19.356Z,9.70
2019-03-22T07:31:49.169Z,7.50
2019-03-22T07:34:18.963Z,8.03
2019-03-22T07:36:48.768Z,10.77
2019-03-22T07:39:18.629Z,9.43
2019-03-22T07:41:48.384Z,8.00
2019-03-22T07:44:18.079Z,9.40
2019-03-22T07:46:47.868Z,8.20
2019-03-22T07:49:17.635Z,10.53
2019-03-22T07:51:47.435Z,7.77
2019-03-22T07:54:17.234Z,8.10
2019-03-22T07:56:47.094Z,8.73
2019-03-22T07:59:16.964Z,10.13
2019-03-22T08:01:46.787Z,9.47
2019-03-22T08:04:16.507Z,9.23
2019-03-22T08:06:46.363Z,8.13
2019-03-22T08:09:16.250Z,7.77
2019-03-22T08:11:46.112Z,11.27
2019-03-22T08:14:16.517Z,8.57
2019-03-22T08:16:46.490Z,7.73
2019-03-22T08:19:16.343Z,8.00
2019-03-22T08:21:46.252Z,7.27
2019-03-22T08:24:16.085Z,9.83
2019-03-22T08:26:46.030Z,12.17
2019-03-22T08:29:15.765Z,11.03
2019-03-22T08:31:45.620Z,10.73
2019-03-22T08:34:15.373Z,11.30
2019-03-22T08:36:45.277Z,10.60
2019-03-22T08:39:15.081Z,12.43
2019-03-22T08:41:44.932Z,8.40
2019-03-22T08:44:14.804Z,10.33
2019-03-22T08:46:45.095Z,11.30
2019-03-22T08:49:15.048Z,10.67
2019-03-22T08:51:44.893Z,11.30
2019-03-22T08:54:14.673Z,8.60
2019-03-22T08:56:44.551Z,10.03
2019-03-22T08:59:14.330Z,10.17
2019-03-22T09:01:44.146Z,10.07
2019-03-22T09:04:13.937Z,10.07
2019-03-22T09:06:43.737Z,9.47
2019-03-22T09:09:13.550Z,10.77
2019-03-22T09:11:43.338Z,7.87
2019-03-22T09:14:13.063Z,8.97
2019-03-22T09:16:42.924Z,11.47
2019-03-22T09:19:12.696Z,9.90
2019-03-22T09:21:42.520Z,13.87
2019-03-22T09:24:12.350Z,11.03
2019-03-22T09:26:47.632Z,9.40
2019-03-22T09:29:13.640Z,9.30
2019-03-22T09:31:43.462Z,10.80
2019-03-22T09:34:13.323Z,13.70
2019-03-22T09:36:43.308Z,10.03
2019-03-22T09:39:13.784Z,9.97
2019-03-22T09:41:43.772Z,10.87
2019-03-22T09:44:13.875Z,10.93
2019-03-22T09:46:43.787Z,13.93
2019-03-22T09:49:13.583Z,9.23
2019-03-22T09:51:43.295Z,10.30
2019-03-22T09:54:13.153Z,10.60
2019-03-22T09:56:47.273Z,10.17
2019-03-22T09:59:14.593Z,8.13
2019-03-22T10:01:44.583Z,10.83
2019-03-22T10:04:14.460Z,8.17
2019-03-22T10:06:44.296Z,7.30
2019-03-22T10:09:14.072Z,9.77
2019-03-22T10:11:43.879Z,10.43
2019-03-22T10:14:13.633Z,9.53
2019-03-22T10:16:43.438Z,7.07
2019-03-22T10:19:13.224Z,10.00
2019-03-22T10:21:43.070Z,10.63
2019-03-22T10:24:12.983Z,11.40
2019-03-22T10:26:42.791Z,9.00
2019-03-22T10:29:12.664Z,11.40
2019-03-22T10:31:42.527Z,11.27
2019-03-22T10:34:12.343Z,8.03
2019-03-22T10:36:42.151Z,10.53
2019-03-22T10:39:12.089Z,12.20
2019-03-22T10:41:41.881Z,10.40
2019-03-22T10:44:11.786Z,11.27
2019-03-22T10:46:41.771Z,10.90
2019-03-22T10:49:11.612Z,11.23
2019-03-22T10:51:41.300Z,11.60
2019-03-22T10:54:11.211Z,10.00
2019-03-22T10:56:41.079Z,11.00
2019-03-22T10:59:10.910Z,10.77
2019-03-22T11:01:51.974Z,12.13
2019-03-22T11:04:12.360Z,9.60
2019-03-22T11:06:42.299Z,9.97
2019-03-22T11:09:12.137Z,10.97
2019-03-22T11:11:41.907Z,9.87
2019-03-22T11:14:11.714Z,13.37
2019-03-22T11:16:41.486Z,14.73
2019-03-22T11:19:11.210Z,10.70
2019-03-22T11:21:40.996Z,14.30
2019-03-22T11:24:10.815Z,10.87
2019-03-22T11:26:40.782Z,14.50
2019-03-22T11:29:10.578Z,9.87
2019-03-22T11:31:40.459Z,11.93
2019-03-22T11:34:10.170Z,10.43
2019-03-22T11:36:39.966Z,13.83
2019-03-22T11:39:15.744Z,10.10
2019-03-22T11:41:43.864Z,15.97
2019-03-22T11:44:13.764Z,11.07
2019-03-22T11:46:43.564Z,14.03
2019-03-22T11:49:13.387Z,11.10
2019-03-22T11:51:43.323Z,11.90
2019-03-22T11:54:13.179Z,12.10
2019-03-22T11:56:48.936Z,12.57
2019-03-22T11:59:18.804Z,12.70
2019-03-22T12:01:48.725Z,11.00
2019-03-22T12:04:18.457Z,12.50
2019-03-22T12:06:48.237Z,9.47
2019-03-22T12:09:18.181Z,9.63
2019-03-22T12:11:47.963Z,10.10
2019-03-22T12:14:17.825Z,10.10
2019-03-22T12:16:47.645Z,12.37
2019-03-22T12:19:17.433Z,13.33
2019-03-22T12:21:47.155Z,10.83
2019-03-22T12:24:18.664Z,12.60
2019-03-22T12:26:48.386Z,11.90
2019-03-22T12:29:18.156Z,12.37
2019-03-22T12:31:47.891Z,12.87
2019-03-22T12:34:18.020Z,13.67
2019-03-22T12:36:47.852Z,12.17
2019-03-22T12:39:17.751Z,13.03
2019-03-22T12:41:47.579Z,9.30
2019-03-22T12:44:17.356Z,9.13
2019-03-22T12:46:49.177Z,10.50
2019-03-22T12:49:18.694Z,11.37
2019-03-22T12:51:48.575Z,13.57
2019-03-22T12:54:18.307Z,11.07
2019-03-22T12:56:48.111Z,13.07
2019-03-22T12:59:17.859Z,14.23
2019-03-22T13:01:47.659Z,12.07
2019-03-22T13:04:17.475Z,10.47
2019-03-22T13:06:47.266Z,8.60
2019-03-22T13:09:17.050Z,13.67
2019-03-22T13:11:46.849Z,11.77
2019-03-22T13:14:16.579Z,9.90
2019-03-22T13:16:46.408Z,11.17
2019-03-22T13:19:16.268Z,11.03
2019-03-22T13:21:46.099Z,30.40
2019-03-22T13:24:15.943Z,13.30
2019-03-22T13:26:45.863Z,11.43
2019-03-22T13:29:15.640Z,10.30
2019-03-22T13:31:45.361Z,9.90
2019-03-22T13:34:16.050Z,12.70
2019-03-22T13:36:45.918Z,9.77
2019-03-22T13:39:15.672Z,11.33
2019-03-22T13:41:46.088Z,11.00
2019-03-22T13:44:15.859Z,14.77
2019-03-22T13:46:45.788Z,11.07
2019-03-22T13:49:15.682Z,16.30
2019-03-22T13:51:45.482Z,11.40
2019-03-22T13:54:15.293Z,10.10
2019-03-22T13:56:45.207Z,12.67
2019-03-22T13:59:14.981Z,11.13
2019-03-22T14:01:45.030Z,29.23
2019-03-22T14:04:14.867Z,27.67
2019-03-22T14:06:44.750Z,12.17
2019-03-22T14:09:14.610Z,33.87
2019-03-22T14:11:44.474Z,12.80
2019-03-22T14:14:14.372Z,10.03
2019-03-22T14:16:44.349Z,11.37
2019-03-22T14:19:14.150Z,10.53
2019-03-22T14:21:44.010Z,22.43
2019-03-22T14:24:13.815Z,13.33
2019-03-22T14:26:43.665Z,12.30
2019-03-22T14:29:13.579Z,11.27
2019-03-22T14:31:43.287Z,10.63
2019-03-22T14:34:13.076Z,11.07
2019-03-22T14:36:42.842Z,11.13
2019-03-22T14:39:12.670Z,10.50
2019-03-22T14:41:42.451Z,10.93
2019-03-22T14:44:12.242Z,10.17
2019-03-22T14:46:42.117Z,10.33
2019-03-22T14:49:11.992Z,20.77
2019-03-22T14:51:41.844Z,12.27
2019-03-22T14:54:11.729Z,12.17
2019-03-22T14:56:43.921Z,13.23
2019-03-22T14:59:13.703Z,9.20
2019-03-22T15:01:43.522Z,9.33
2019-03-22T15:04:13.218Z,13.47
2019-03-22T15:06:42.946Z,10.23
2019-03-22T15:09:12.727Z,10.73
2019-03-22T15:11:42.567Z,13.07
2019-03-22T15:14:31.323Z,8.83
2019-03-22T15:17:14.646Z,11.07
2019-03-22T15:20:03.430Z,9.07
2019-03-22T15:22:52.163Z,8.50
2019-03-22T15:25:39.774Z,9.43
2019-03-22T15:28:27.500Z,9.27
2019-03-22T15:31:15.187Z,9.77
2019-03-22T15:34:04.719Z,6.63
2019-03-22T15:36:52.196Z,7.40
2019-03-22T15:39:44.403Z,8.53
2019-03-22T15:42:14.297Z,8.57
2019-03-22T15:44:44.076Z,8.97
2019-03-22T15:47:13.896Z,13.40
2019-03-22T15:49:43.655Z,8.67
2019-03-22T15:52:13.447Z,10.23
2019-03-22T15:54:43.210Z,8.77
2019-03-22T15:57:13.023Z,7.93
2019-03-22T15:59:42.794Z,9.30
2019-03-22T16:02:12.523Z,7.30
2019-03-22T16:04:42.287Z,10.50
2019-03-22T16:07:12.162Z,10.70
2019-03-22T16:09:41.909Z,11.33
2019-03-22T16:12:11.707Z,10.67
2019-03-22T16:14:41.476Z,9.30
2019-03-22T16:17:11.266Z,9.70
2019-03-22T16:19:40.951Z,8.47
2019-03-22T16:22:10.669Z,9.67
2019-03-22T16:24:40.503Z,7.63
2019-03-22T16:27:10.310Z,13.40
2019-03-22T16:29:40.081Z,8.00
2019-03-22T16:32:09.876Z,7.90
2019-03-22T16:34:39.646Z,8.87
2019-03-22T16:37:09.469Z,10.20
2019-03-22T16:39:39.294Z,6.77
2019-03-22T16:42:09.013Z,6.10
2019-03-22T16:44:38.783Z,9.43
2019-03-22T16:47:08.504Z,7.47
2019-03-22T16:49:38.263Z,4.57
2019-03-22T16:52:08.082Z,9.33
2019-03-22T16:54:37.846Z,7.23
2019-03-22T16:57:07.634Z,6.47
2019-03-22T16:59:37.406Z,5.73
2019-03-22T17:02:07.187Z,6.07
2019-03-22T17:04:36.935Z,7.70
2019-03-22T17:07:06.728Z,7.70
2019-03-22T17:09:36.440Z,8.33
2019-03-22T17:12:06.204Z,7.33
2019-03-22T17:14:35.992Z,6.07
2019-03-22T17:17:05.765Z,4.73
2019-03-22T17:19:35.590Z,6.27
2019-03-22T17:22:05.498Z,4.73
2019-03-22T17:24:35.352Z,7.37
2019-03-22T17:27:05.140Z,6.60
2019-03-22T17:29:34.927Z,7.10
2019-03-22T17:32:04.703Z,6.37
2019-03-22T17:34:34.551Z,6.37
2019-03-22T17:37:04.339Z,6.70
2019-03-22T17:39:34.163Z,6.53
2019-03-22T17:42:03.986Z,6.93
2019-03-22T17:44:33.791Z,6.40
2019-03-22T17:47:03.580Z,4.50
2019-03-22T17:49:33.383Z,3.73
2019-03-22T17:52:03.222Z,4.70
2019-03-22T17:54:33.034Z,6.23
2019-03-22T17:57:02.918Z,5.13
2019-03-22T17:59:32.712Z,6.23
2019-03-22T18:02:02.584Z,5.97
2019-03-22T18:04:32.375Z,5.23
2019-03-22T18:07:02.089Z,6.97
2019-03-22T18:09:31.894Z,7.27
2019-03-22T18:12:01.671Z,4.37
2019-03-22T18:14:31.471Z,6.90
2019-03-22T18:17:02.127Z,6.30
2019-03-22T18:19:31.930Z,7.43
2019-03-22T18:22:01.686Z,7.17
2019-03-22T18:24:31.455Z,5.47
2019-03-22T18:27:01.246Z,5.30
2019-03-22T18:29:31.065Z,6.43
2019-03-22T18:32:00.844Z,7.50
2019-03-22T18:34:34.832Z,5.73
2019-03-22T18:37:02.144Z,7.37
2019-03-22T18:39:31.950Z,5.97
2019-03-22T18:42:01.714Z,7.97
2019-03-22T18:44:31.524Z,8.50
2019-03-22T18:47:01.309Z,8.83
2019-03-22T18:49:31.122Z,6.67
2019-03-22T18:52:00.889Z,10.50
2019-03-22T18:54:30.666Z,6.13
2019-03-22T18:57:00.446Z,10.70
2019-03-22T18:59:30.244Z,8.87
2019-03-22T19:02:00.032Z,6.97
2019-03-22T19:04:29.835Z,8.23
2019-03-22T19:06:59.616Z,8.30
2019-03-22T19:09:29.330Z,7.97
2019-03-22T19:11:59.158Z,7.53
2019-03-22T19:14:28.993Z,6.30
2019-03-22T19:16:58.683Z,6.37
2019-03-22T19:19:28.414Z,8.13
2019-03-22T19:21:58.202Z,5.97
2019-03-22T19:24:28.039Z,6.87
2019-03-22T19:26:57.804Z,5.73
2019-03-22T19:29:27.611Z,8.03
2019-03-22T19:31:57.384Z,7.00
2019-03-22T19:34:27.203Z,7.53
2019-03-22T19:36:57.055Z,6.57
2019-03-22T19:39:26.846Z,5.27
2019-03-22T19:41:56.606Z,6.87
2019-03-22T19:44:26.453Z,8.97
2019-03-22T19:46:56.235Z,7.30
2019-03-22T19:49:26.034Z,8.43
2019-03-22T19:51:55.804Z,8.10
2019-03-22T19:54:25.603Z,9.13
2019-03-22T19:56:55.374Z,5.93
2019-03-22T19:59:25.149Z,7.83
2019-03-22T20:01:54.965Z,7.33
2019-03-22T20:04:24.735Z,9.20
2019-03-22T20:06:54.534Z,8.17
2019-03-22T20:09:24.324Z,8.77
2019-03-22T20:11:54.119Z,11.47
2019-03-22T20:14:23.903Z,8.67
2019-03-22T20:16:53.762Z,11.00
2019-03-22T20:19:23.535Z,12.00
2019-03-22T20:21:53.346Z,10.73
2019-03-22T20:24:23.120Z,10.40
2019-03-22T20:26:52.934Z,10.27
2019-03-22T20:29:22.704Z,10.00
2019-03-22T20:31:52.425Z,8.80
2019-03-22T20:34:30.119Z,10.53
2019-03-22T20:37:00.082Z,9.20
2019-03-22T20:39:29.790Z,8.77
2019-03-22T20:41:59.637Z,11.73
2019-03-22T20:44:33.928Z,8.70
2019-03-22T20:47:00.938Z,9.87
2019-03-22T20:49:30.714Z,10.00
2019-03-22T20:52:00.496Z,10.27
2019-03-22T20:54:30.282Z,10.40
2019-03-22T20:57:00.081Z,12.27
2019-03-22T20:59:29.869Z,10.17
2019-03-22T21:01:59.675Z,13.77
2019-03-22T21:04:29.553Z,10.50
2019-03-22T21:06:59.391Z,8.93
2019-03-22T21:09:29.229Z,12.20
2019-03-22T21:11:59.117Z,10.80
2019-03-22T21:14:30.760Z,11.93
2019-03-22T21:17:00.423Z,11.53
2019-03-22T21:19:30.193Z,10.97
2019-03-22T21:22:00.071Z,14.67
2019-03-22T21:24:29.847Z,13.30
2019-03-22T21:26:59.651Z,11.10
2019-03-22T21:29:29.414Z,8.93
2019-03-22T21:31:59.249Z,12.27
2019-03-22T21:34:29.038Z,11.10
2019-03-22T21:36:58.826Z,9.07
2019-03-22T21:39:28.502Z,9.33
2019-03-22T21:41:58.192Z,10.03
2019-03-22T21:44:28.432Z,10.33
2019-03-22T21:46:58.680Z,9.70
2019-03-22T21:49:30.050Z,10.13
2019-03-22T21:52:00.502Z,15.00
2019-03-22T21:54:33.853Z,10.47
2019-03-22T21:57:04.064Z,13.40
2019-03-22T21:59:34.099Z,11.87
2019-03-22T22:02:04.542Z,12.77
2019-03-22T22:04:35.303Z,12.07
2019-03-22T22:07:05.483Z,10.80
2019-03-22T22:09:35.794Z,13.50
2019-03-22T22:12:06.202Z,12.00
2019-03-22T22:14:40.701Z,12.10
2019-03-22T22:17:08.091Z,11.93
2019-03-22T22:19:38.433Z,12.00
2019-03-22T22:22:09.284Z,11.97
2019-03-22T22:24:39.723Z,13.77
2019-03-22T22:27:14.073Z,11.97
2019-03-22T22:29:42.295Z,14.63
2019-03-22T22:32:12.547Z,12.80
2019-03-22T22:34:43.572Z,14.57
2019-03-22T22:37:14.486Z,11.97
2019-03-22T22:39:44.699Z,12.00
2019-03-22T22:42:14.957Z,13.63
2019-03-22T22:44:45.374Z,12.37
2019-03-22T22:47:15.446Z,14.83
2019-03-22T22:49:45.824Z,12.13
2019-03-22T22:52:16.407Z,13.90
2019-03-22T22:54:46.567Z,16.17
2019-03-22T22:57:16.831Z,14.73
2019-03-22T22:59:46.748Z,11.47
2019-03-22T23:02:16.586Z,15.00
2019-03-22T23:04:47.083Z,15.93
2019-03-22T23:07:17.518Z,14.23
2019-03-22T23:09:48.263Z,15.40
2019-03-22T23:12:18.070Z,13.97
2019-03-22T23:14:49.270Z,13.97
2019-03-22T23:17:20.124Z,15.23
2019-03-22T23:19:50.600Z,14.20
2019-03-22T23:22:21.118Z,16.47
2019-03-22T23:24:50.948Z,14.53
2019-03-22T23:27:21.349Z,13.53
2019-03-22T23:29:52.451Z,14.70
2019-03-22T23:32:22.730Z,14.87
2019-03-22T23:34:59.001Z,15.90
2019-03-22T23:37:24.118Z,12.33
2019-03-22T23:39:54.878Z,14.37
2019-03-22T23:42:25.280Z,15.43
2019-03-22T23:44:55.506Z,12.67
2019-03-22T23:47:25.987Z,12.53
2019-03-22T23:49:56.311Z,13.60
2019-03-22T23:52:26.938Z,12.03
2019-03-22T23:54:57.126Z,15.70
2019-03-22T23:57:27.581Z,12.17
2019-03-22T23:59:57.797Z,13.97
